Time;durP1;ratioP1;P1;durP2;ratioP2;P2;SDS_P1;SDS_P2;PMS_P1;PMS_P2;Temp;Humidity;BMP_temperature;BMP_pressure;BME280_temperature;BME280_humidity;BME280_pressure;Samples;Min_cycle;Max_cycle;Signal;HPM_P1;HPM_P2
2023/08/20 00:00:52;;;;;;;8.57;2.40;;;17.30;99.90;;;;;;4213052;28;20063;-79
2023/08/20 00:03:02;;;;;;;9.43;2.50;;;17.20;99.90;;;;;;4214817;28;20044;-79
2023/08/20 00:05:04;;;;;;;11.38;3.03;;;17.30;99.90;;;;;;4214807;28;20058;-79
2023/08/20 00:07:05;;;;;;;9.95;2.10;;;17.30;99.90;;;;;;4214995;28;20032;-79
2023/08/20 00:09:08;;;;;;;10.00;3.40;;;17.20;99.90;;;;;;4215087;28;20047;-79
2023/08/20 00:11:09;;;;;;;5.95;1.95;;;17.20;99.90;;;;;;4230023;28;20047;-79
2023/08/20 00:13:10;;;;;;;8.02;1.58;;;17.20;99.90;;;;;;4230191;28;20054;-79
2023/08/20 00:15:11;;;;;;;7.47;2.35;;;17.20;99.90;;;;;;4231284;28;20544;-79
2023/08/20 00:17:12;;;;;;;6.03;2.00;;;17.20;99.90;;;;;;4236220;28;20126;-79
2023/08/20 00:19:14;;;;;;;6.43;2.35;;;17.20;99.90;;;;;;4234077;28;20048;-79
2023/08/20 00:21:15;;;;;;;8.15;2.05;;;17.10;99.90;;;;;;4240808;28;20400;-79
2023/08/20 00:23:16;;;;;;;11.55;2.88;;;17.10;99.90;;;;;;4233413;28;20050;-79
2023/08/20 00:25:17;;;;;;;7.95;2.65;;;17.10;99.90;;;;;;4232939;28;20043;-79
2023/08/20 00:27:18;;;;;;;5.68;2.00;;;17.10;99.90;;;;;;4232945;28;20140;-79
2023/08/20 00:29:19;;;;;;;7.03;2.13;;;17.00;99.90;;;;;;4232558;28;20051;-81
2023/08/20 00:31:20;;;;;;;7.63;2.20;;;17.00;99.90;;;;;;4230692;28;20116;-80
2023/08/20 00:33:20;;;;;;;9.52;2.53;;;17.00;99.90;;;;;;4231101;28;20040;-79
2023/08/20 00:35:21;;;;;;;8.25;2.30;;;17.00;99.90;;;;;;4231841;28;20072;-79
2023/08/20 00:37:22;;;;;;;6.53;2.33;;;17.00;99.90;;;;;;4225633;28;20450;-79
2023/08/20 00:39:23;;;;;;;9.43;2.78;;;17.00;99.90;;;;;;4231449;28;20043;-80
2023/08/20 00:41:24;;;;;;;8.65;2.85;;;16.90;99.90;;;;;;4231177;28;20035;-79
2023/08/20 00:43:24;;;;;;;11.25;3.15;;;16.90;99.90;;;;;;4230134;28;20043;-80
2023/08/20 00:45:26;;;;;;;9.88;2.75;;;16.80;99.90;;;;;;4231620;28;20048;-80
2023/08/20 00:47:28;;;;;;;9.75;2.45;;;16.80;99.90;;;;;;4231370;28;20043;-80
2023/08/20 00:49:31;;;;;;;7.50;2.33;;;16.70;99.90;;;;;;4230912;28;20054;-80
2023/08/20 00:51:35;;;;;;;7.40;2.38;;;16.70;99.90;;;;;;4231376;28;20489;-80
2023/08/20 00:53:36;;;;;;;9.05;2.40;;;16.20;99.90;;;;;;4219509;28;20043;-80
2023/08/20 00:55:37;;;;;;;7.28;2.10;;;16.70;99.90;;;;;;4214586;28;20040;-80
2023/08/20 00:57:38;;;;;;;8.68;2.28;;;16.70;99.90;;;;;;4213431;28;20098;-80
2023/08/20 00:59:39;;;;;;;9.75;2.20;;;16.70;99.90;;;;;;4216910;28;20545;-80
2023/08/20 01:01:40;;;;;;;7.97;2.70;;;16.70;99.90;;;;;;4230969;28;20060;-80
2023/08/20 01:03:41;;;;;;;9.48;2.22;;;16.70;99.90;;;;;;4231154;28;20036;-80
2023/08/20 01:05:51;;;;;;;6.07;2.50;;;16.70;99.90;;;;;;4231146;28;20047;-80
2023/08/20 01:08:19;;;;;;;9.02;2.78;;;16.60;99.90;;;;;;4212858;28;20147;-80
2023/08/20 01:10:38;;;;;;;7.72;2.78;;;16.60;99.90;;;;;;4245815;28;20035;-80
2023/08/20 01:12:39;;;;;;;10.10;2.65;;;16.60;99.90;;;;;;4247811;28;20130;-80
2023/08/20 01:14:40;;;;;;;10.40;2.83;;;16.50;99.90;;;;;;4247802;28;20491;-80
2023/08/20 01:16:41;;;;;;;8.13;3.22;;;16.50;99.90;;;;;;4248076;28;20039;-80
2023/08/20 01:18:42;;;;;;;11.45;4.03;;;16.50;99.90;;;;;;4248037;28;20185;-80
2023/08/20 01:20:51;;;;;;;11.70;3.33;;;16.50;99.90;;;;;;4229840;28;20118;-80
2023/08/20 01:23:27;;;;;;;8.25;2.53;;;16.50;99.90;;;;;;4229637;28;20089;-80
2023/08/20 01:26:07;;;;;;;8.93;2.90;;;16.40;99.90;;;;;;4249300;27;20509;-80
2023/08/20 01:28:26;;;;;;;9.68;2.60;;;16.40;99.90;;;;;;4251474;27;20104;-80
2023/08/20 01:30:27;;;;;;;7.95;3.38;;;16.40;99.90;;;;;;4251264;27;20059;-80
2023/08/20 01:32:28;;;;;;;9.38;3.05;;;16.40;99.90;;;;;;4251383;27;20122;-80
2023/08/20 01:34:29;;;;;;;11.55;2.58;;;16.40;99.90;;;;;;4251138;27;20100;-80
2023/08/20 01:36:30;;;;;;;4.78;2.38;;;16.40;99.90;;;;;;4251057;27;20468;-80
2023/08/20 01:38:30;;;;;;;9.60;2.60;;;16.40;99.90;;;;;;4250995;27;20050;-80
2023/08/20 01:40:32;;;;;;;13.50;3.50;;;16.40;99.90;;;;;;4251227;27;20375;-80
2023/08/20 01:42:44;;;;;;;11.70;2.80;;;16.40;99.90;;;;;;4259221;27;20027;-80
2023/08/20 01:44:50;;;;;;;6.13;2.70;;;16.40;99.90;;;;;;4254696;28;20058;-80
2023/08/20 01:46:51;;;;;;;7.72;2.28;;;16.40;99.90;;;;;;4262770;27;20498;-80
2023/08/20 01:48:51;;;;;;;6.15;2.40;;;16.40;99.90;;;;;;4251273;27;20039;-80
2023/08/20 01:50:52;;;;;;;5.75;2.35;;;16.40;99.90;;;;;;4250652;27;20070;-80
2023/08/20 01:52:53;;;;;;;7.35;2.85;;;16.30;99.90;;;;;;4251078;27;20092;-80
2023/08/20 01:54:54;;;;;;;8.75;2.30;;;16.30;99.90;;;;;;4245121;27;20044;-80
2023/08/20 01:56:54;;;;;;;6.72;2.53;;;16.30;99.90;;;;;;4250459;27;20035;-80
2023/08/20 01:58:55;;;;;;;11.95;2.85;;;16.30;99.90;;;;;;4251000;27;20440;-80
2023/08/20 02:00:56;;;;;;;8.82;2.30;;;16.30;99.90;;;;;;4250996;27;20172;-80
2023/08/20 02:02:57;;;;;;;9.07;2.83;;;16.30;99.90;;;;;;4250707;27;20043;-80
2023/08/20 02:04:58;;;;;;;5.20;2.30;;;16.20;99.90;;;;;;4250262;27;20053;-80
2023/08/20 02:06:59;;;;;;;3.53;2.08;;;16.20;99.90;;;;;;4250893;27;20454;-80
2023/08/20 02:08:59;;;;;;;6.32;2.25;;;16.20;99.90;;;;;;4250891;27;20075;-80
2023/08/20 02:11:02;;;;;;;8.98;2.40;;;16.20;99.90;;;;;;4249398;27;20035;-80
2023/08/20 02:13:04;;;;;;;9.90;2.67;;;16.20;99.90;;;;;;4248143;27;20093;-80
2023/08/20 02:15:05;;;;;;;6.10;3.53;;;16.20;99.90;;;;;;4233720;28;20065;-80
2023/08/20 02:17:08;;;;;;;9.45;2.38;;;16.20;99.90;;;;;;4215478;28;20036;-80
2023/08/20 02:19:08;;;;;;;8.60;2.05;;;16.20;99.90;;;;;;4233363;28;20043;-80
2023/08/20 02:21:09;;;;;;;6.05;2.10;;;16.20;99.90;;;;;;4233701;28;20036;-80
2023/08/20 02:23:10;;;;;;;6.80;2.22;;;16.20;99.90;;;;;;4233429;28;20130;-80
2023/08/20 02:25:11;;;;;;;6.13;2.10;;;16.20;99.90;;;;;;4215172;28;20158;-80
2023/08/20 02:27:11;;;;;;;8.30;2.45;;;16.20;99.90;;;;;;4232795;28;20512;-80
2023/08/20 02:29:12;;;;;;;7.18;1.85;;;16.20;99.90;;;;;;4233498;28;20446;-80
2023/08/20 02:31:13;;;;;;;6.85;2.67;;;16.20;99.90;;;;;;4237048;27;20071;-80
2023/08/20 02:33:14;;;;;;;6.40;2.38;;;16.10;99.90;;;;;;4233380;28;20031;-80
2023/08/20 02:35:16;;;;;;;8.77;2.42;;;16.10;99.90;;;;;;4215138;28;20055;-80
2023/08/20 02:37:17;;;;;;;7.25;2.30;;;16.00;99.90;;;;;;4214309;28;20167;-80
2023/08/20 02:39:18;;;;;;;7.07;2.75;;;16.10;99.90;;;;;;4232903;28;20043;-80
2023/08/20 02:41:19;;;;;;;9.98;2.72;;;16.00;99.90;;;;;;4233073;28;20159;-79
2023/08/20 02:43:19;;;;;;;19.88;3.83;;;16.00;99.90;;;;;;4233074;28;20073;-80
2023/08/20 02:45:20;;;;;;;9.57;2.47;;;16.00;99.90;;;;;;4233451;28;20040;-80
2023/08/20 02:47:21;;;;;;;9.85;2.58;;;16.00;99.90;;;;;;4236688;27;20042;-80
2023/08/20 02:49:21;;;;;;;9.27;2.83;;;16.00;99.90;;;;;;4250444;27;20478;-79
2023/08/20 02:51:22;;;;;;;14.05;2.88;;;16.00;99.90;;;;;;4250569;27;20050;-80
2023/08/20 02:53:23;;;;;;;8.65;2.95;;;16.10;99.90;;;;;;4250215;27;20403;-80
2023/08/20 02:55:24;;;;;;;9.35;2.83;;;16.00;99.90;;;;;;4231201;28;20043;-80
2023/08/20 02:57:25;;;;;;;9.30;2.80;;;16.10;99.90;;;;;;4232214;28;20406;-80
2023/08/20 02:59:26;;;;;;;11.73;4.90;;;16.00;99.90;;;;;;4250717;27;20122;-80
2023/08/20 03:01:27;;;;;;;9.02;3.63;;;16.00;99.90;;;;;;4249905;27;20501;-80
2023/08/20 03:03:28;;;;;;;13.88;3.80;;;16.00;99.90;;;;;;4232065;28;20568;-80
2023/08/20 03:05:28;;;;;;;8.20;3.17;;;16.10;99.90;;;;;;4246608;27;20043;-80
2023/08/20 03:07:30;;;;;;;8.85;3.60;;;16.00;99.90;;;;;;4229362;28;20059;-80
2023/08/20 03:09:31;;;;;;;10.18;3.30;;;16.00;99.90;;;;;;4232445;28;20035;-80
2023/08/20 03:11:31;;;;;;;7.78;3.20;;;16.00;99.90;;;;;;4250865;27;20124;-80
2023/08/20 03:13:33;;;;;;;11.82;3.25;;;16.00;99.90;;;;;;4266805;27;20035;-80
2023/08/20 03:15:33;;;;;;;9.40;3.10;;;16.00;99.90;;;;;;4271152;27;20079;-80
2023/08/20 03:17:34;;;;;;;8.10;3.60;;;16.00;99.90;;;;;;4256598;27;20046;-80
2023/08/20 03:19:35;;;;;;;9.73;3.58;;;15.90;99.90;;;;;;4249876;27;20091;-80
2023/08/20 03:21:36;;;;;;;5.43;3.03;;;15.90;99.90;;;;;;4247499;27;20394;-81
2023/08/20 03:23:37;;;;;;;9.95;3.20;;;15.90;99.90;;;;;;4236174;27;20114;-80
2023/08/20 03:25:38;;;;;;;13.00;3.85;;;15.90;99.90;;;;;;4232687;28;20047;-80
2023/08/20 03:27:39;;;;;;;11.55;4.00;;;15.90;99.90;;;;;;4232172;28;20495;-80
2023/08/20 03:29:39;;;;;;;9.80;4.07;;;15.80;99.90;;;;;;4234860;28;20036;-80
2023/08/20 03:31:40;;;;;;;18.45;4.78;;;15.80;99.90;;;;;;4233961;28;20039;-79
2023/08/20 03:33:41;;;;;;;12.65;3.88;;;15.80;99.90;;;;;;4240491;28;20437;-80
2023/08/20 03:35:42;;;;;;;7.60;3.67;;;15.80;99.90;;;;;;4232415;28;20051;-80
2023/08/20 03:37:43;;;;;;;10.15;3.70;;;15.80;99.90;;;;;;4232350;28;20048;-80
2023/08/20 03:39:43;;;;;;;8.43;3.38;;;15.80;99.90;;;;;;4243780;27;20123;-81
2023/08/20 03:41:44;;;;;;;12.43;4.47;;;15.70;99.90;;;;;;4248786;27;20043;-80
2023/08/20 03:43:45;;;;;;;9.63;4.35;;;15.80;99.90;;;;;;4249313;27;20109;-80
2023/08/20 03:45:50;;;;;;;10.68;3.78;;;15.70;99.90;;;;;;4249313;27;20050;-80
2023/08/20 03:47:51;;;;;;;9.77;3.78;;;15.70;99.90;;;;;;4249294;27;20395;-80
2023/08/20 03:49:52;;;;;;;10.23;3.40;;;15.70;99.90;;;;;;4248573;27;20035;-80
2023/08/20 03:51:53;;;;;;;11.73;3.80;;;15.70;99.90;;;;;;4249287;27;20047;-80
2023/08/20 03:53:54;;;;;;;12.63;4.07;;;15.70;99.90;;;;;;4249079;27;20042;-80
2023/08/20 03:55:54;;;;;;;8.98;4.25;;;15.70;99.90;;;;;;4248972;27;20095;-81
2023/08/20 03:57:55;;;;;;;11.77;4.05;;;15.70;99.90;;;;;;4242957;27;20042;-81
2023/08/20 03:59:56;;;;;;;13.07;4.82;;;15.70;99.90;;;;;;4248698;27;20043;-80
2023/08/20 04:01:57;;;;;;;8.57;4.13;;;15.70;99.90;;;;;;4230523;28;20051;-81
2023/08/20 04:03:57;;;;;;;9.85;3.30;;;15.70;99.90;;;;;;4232203;28;20044;-80
2023/08/20 04:05:58;;;;;;;9.18;3.95;;;15.70;99.90;;;;;;4231967;28;20047;-81
2023/08/20 04:07:59;;;;;;;9.57;3.60;;;15.70;99.90;;;;;;4231801;28;20044;-81
2023/08/20 04:10:00;;;;;;;11.43;3.90;;;15.70;99.90;;;;;;4231415;28;20035;-80
2023/08/20 04:12:00;;;;;;;8.82;3.67;;;15.70;99.90;;;;;;4231797;28;20035;-80
2023/08/20 04:14:01;;;;;;;9.60;4.10;;;15.70;99.90;;;;;;4222616;28;20191;-80
2023/08/20 04:16:02;;;;;;;8.15;3.33;;;15.70;99.90;;;;;;4214548;28;20052;-80
2023/08/20 04:18:03;;;;;;;9.85;3.13;;;15.70;99.90;;;;;;4214860;28;20404;-80
2023/08/20 04:20:07;;;;;;;9.40;3.33;;;15.70;99.90;;;;;;4220827;28;20571;-80
2023/08/20 04:22:08;;;;;;;8.93;3.05;;;15.70;99.90;;;;;;4230326;28;20082;-81
2023/08/20 04:24:08;;;;;;;6.93;2.83;;;15.70;99.90;;;;;;4230231;28;20043;-80
2023/08/20 04:26:09;;;;;;;10.70;3.10;;;15.80;99.90;;;;;;4231440;28;20039;-80
2023/08/20 04:28:10;;;;;;;10.52;2.60;;;15.80;99.90;;;;;;4230480;28;20592;-80
2023/08/20 04:30:11;;;;;;;8.15;2.35;;;15.80;99.90;;;;;;4225813;28;20050;-80
2023/08/20 04:32:12;;;;;;;8.63;2.50;;;15.80;99.90;;;;;;4230057;28;20039;-80
2023/08/20 04:34:13;;;;;;;9.20;3.75;;;15.90;99.90;;;;;;4230790;28;20040;-80
2023/08/20 04:36:13;;;;;;;12.00;2.65;;;15.90;99.90;;;;;;4230000;28;20527;-80
2023/08/20 04:38:14;;;;;;;9.00;2.42;;;16.00;99.90;;;;;;4231466;28;20403;-81
2023/08/20 04:40:15;;;;;;;14.48;3.33;;;16.00;99.90;;;;;;4231250;28;20048;-80
2023/08/20 04:42:15;;;;;;;7.53;2.70;;;16.00;99.90;;;;;;4231145;28;20123;-80
2023/08/20 04:44:16;;;;;;;11.05;3.20;;;16.00;99.90;;;;;;4213100;28;20201;-80
2023/08/20 04:46:18;;;;;;;10.05;3.83;;;16.00;99.90;;;;;;4231414;28;20774;-80
2023/08/20 04:48:18;;;;;;;10.75;2.80;;;16.00;99.90;;;;;;4225477;28;20479;-80
2023/08/20 04:50:19;;;;;;;6.35;2.90;;;17.60;99.90;;;;;;4231053;28;20043;-80
2023/08/20 04:52:20;;;;;;;4.85;2.85;;;16.00;99.90;;;;;;4231315;28;20043;-80
2023/08/20 04:54:21;;;;;;;11.13;4.03;;;16.10;99.90;;;;;;4231232;28;20040;-80
2023/08/20 04:56:21;;;;;;;13.07;2.97;;;16.10;99.90;;;;;;4230824;28;20044;-80
2023/08/20 04:58:22;;;;;;;11.18;3.15;;;16.10;99.90;;;;;;4229796;28;20044;-80
2023/08/20 05:00:23;;;;;;;9.45;3.10;;;16.20;99.90;;;;;;4227871;28;20087;-80
2023/08/20 05:02:23;;;;;;;10.32;2.53;;;16.20;99.90;;;;;;4239663;27;20058;-80
2023/08/20 05:04:24;;;;;;;7.88;3.67;;;16.20;99.90;;;;;;4248120;27;20043;-80
2023/08/20 05:06:25;;;;;;;6.63;2.47;;;16.20;99.90;;;;;;4229682;28;20086;-80
2023/08/20 05:08:25;;;;;;;6.30;2.20;;;16.30;99.90;;;;;;4248125;28;20088;-80
2023/08/20 05:10:26;;;;;;;9.48;2.85;;;16.30;99.90;;;;;;4229607;28;20179;-80
2023/08/20 05:12:27;;;;;;;5.22;3.03;;;16.30;99.90;;;;;;4248149;28;20054;-80
2023/08/20 05:14:28;;;;;;;10.38;3.38;;;16.30;99.90;;;;;;4248017;28;20071;-80
2023/08/20 05:16:28;;;;;;;6.35;2.28;;;16.30;99.90;;;;;;4248104;28;20047;-80
2023/08/20 05:18:29;;;;;;;8.52;2.88;;;16.40;99.90;;;;;;4241476;28;20054;-80
2023/08/20 05:20:30;;;;;;;9.63;2.90;;;16.40;99.90;;;;;;4240239;28;20043;-80
2023/08/20 05:22:30;;;;;;;7.57;3.03;;;16.40;99.90;;;;;;4248059;28;20134;-80
2023/08/20 05:24:32;;;;;;;8.05;2.78;;;16.40;99.90;;;;;;4229578;28;20046;-80
2023/08/20 05:26:34;;;;;;;6.50;2.55;;;16.50;99.90;;;;;;4247913;28;20126;-80
2023/08/20 05:28:35;;;;;;;9.88;2.80;;;16.50;99.90;;;;;;4247982;28;20425;-80
2023/08/20 05:30:35;;;;;;;7.45;2.28;;;16.50;99.90;;;;;;4229021;28;20092;-80
2023/08/20 05:32:36;;;;;;;6.90;2.35;;;16.50;99.90;;;;;;4247859;28;20047;-80
2023/08/20 05:34:37;;;;;;;10.90;2.50;;;16.60;99.90;;;;;;4247931;28;20082;-80
2023/08/20 05:36:40;;;;;;;13.18;2.67;;;16.60;99.90;;;;;;4241730;28;20039;-80
2023/08/20 05:38:42;;;;;;;7.45;2.63;;;16.60;99.90;;;;;;4247873;28;20039;-80
2023/08/20 05:40:43;;;;;;;10.60;4.07;;;16.60;99.90;;;;;;4229208;28;20050;-80
2023/08/20 05:42:44;;;;;;;8.93;2.40;;;16.70;99.90;;;;;;4247460;28;20043;-80
2023/08/20 05:44:45;;;;;;;7.13;2.60;;;16.70;99.90;;;;;;4247542;28;20078;-80
2023/08/20 05:46:46;;;;;;;9.80;2.78;;;16.80;99.90;;;;;;4247612;28;20398;-80
2023/08/20 05:48:46;;;;;;;10.40;2.83;;;16.80;99.90;;;;;;4247565;28;20402;-80
2023/08/20 05:50:47;;;;;;;11.30;2.92;;;16.90;99.90;;;;;;4229609;28;20455;-80
2023/08/20 05:52:48;;;;;;;8.80;2.67;;;16.90;99.90;;;;;;4229306;28;20054;-80
2023/08/20 05:54:49;;;;;;;10.93;3.08;;;17.00;99.90;;;;;;4242570;28;20046;-80
2023/08/20 05:56:50;;;;;;;7.20;2.53;;;17.00;99.90;;;;;;4230650;28;20495;-80
2023/08/20 05:58:51;;;;;;;9.40;2.15;;;17.10;99.90;;;;;;4230656;28;20039;-80
2023/08/20 06:00:51;;;;;;;9.32;2.83;;;17.10;99.90;;;;;;4230758;28;20043;-80
2023/08/20 06:02:52;;;;;;;6.85;2.85;;;17.20;99.90;;;;;;4211191;28;20059;-80
2023/08/20 06:04:53;;;;;;;8.70;3.00;;;17.20;99.90;;;;;;4245667;28;20035;-80
2023/08/20 06:06:54;;;;;;;9.10;2.75;;;17.30;99.90;;;;;;4247632;28;20131;-80
2023/08/20 06:08:55;;;;;;;7.40;2.75;;;17.30;99.90;;;;;;4247697;28;20046;-80
2023/08/20 06:10:55;;;;;;;9.60;2.88;;;17.40;99.90;;;;;;4229243;28;20043;-80
2023/08/20 06:12:57;;;;;;;13.75;2.85;;;17.50;99.90;;;;;;4243607;27;20054;-80
2023/08/20 06:14:57;;;;;;;5.68;2.63;;;17.60;99.90;;;;;;4249897;27;20533;-80
2023/08/20 06:16:58;;;;;;;6.30;2.28;;;17.60;99.90;;;;;;4243328;27;20039;-80
2023/08/20 06:18:59;;;;;;;10.30;3.00;;;17.70;99.90;;;;;;4233019;28;20423;-80
2023/08/20 06:20:59;;;;;;;14.15;2.92;;;17.80;99.90;;;;;;4233465;28;20044;-80
2023/08/20 06:23:00;;;;;;;9.77;3.03;;;17.80;99.90;;;;;;4233197;28;20040;-80
2023/08/20 06:25:02;;;;;;;13.57;3.03;;;18.00;99.90;;;;;;4247541;27;20450;-80
2023/08/20 06:27:03;;;;;;;12.60;2.80;;;18.00;99.90;;;;;;4250156;27;20078;-80
2023/08/20 06:29:03;;;;;;;9.98;3.45;;;18.10;99.90;;;;;;4249699;27;20411;-80
2023/08/20 06:31:04;;;;;;;8.82;2.60;;;18.20;99.90;;;;;;4229652;28;20077;-81
2023/08/20 06:33:05;;;;;;;10.98;2.63;;;18.20;99.90;;;;;;4246527;27;20038;-80
2023/08/20 06:35:06;;;;;;;9.43;2.50;;;18.30;99.90;;;;;;4240041;27;20036;-80
2023/08/20 06:37:07;;;;;;;13.07;3.17;;;18.30;99.90;;;;;;4233291;28;20388;-80
2023/08/20 06:39:08;;;;;;;16.90;3.30;;;18.40;99.90;;;;;;4233170;28;20131;-80
2023/08/20 06:41:09;;;;;;;8.27;2.80;;;18.50;99.90;;;;;;4231334;28;20043;-80
2023/08/20 06:43:09;;;;;;;15.30;3.58;;;18.50;99.90;;;;;;4232858;28;20506;-80
2023/08/20 06:45:10;;;;;;;11.55;3.30;;;18.60;99.90;;;;;;4215139;28;20599;-80
2023/08/20 06:47:11;;;;;;;7.85;2.90;;;18.70;99.90;;;;;;4231555;28;20049;-80
2023/08/20 06:49:12;;;;;;;11.68;2.38;;;18.70;99.90;;;;;;4238527;27;20092;-80
2023/08/20 06:51:15;;;;;;;9.77;3.05;;;18.80;99.90;;;;;;4250039;27;20039;-80
2023/08/20 06:53:15;;;;;;;16.23;3.40;;;18.80;99.90;;;;;;4249827;27;20158;-80
2023/08/20 06:55:16;;;;;;;8.70;2.25;;;18.90;99.90;;;;;;4249584;27;20047;-80
2023/08/20 06:57:17;;;;;;;7.93;2.08;;;19.00;99.90;;;;;;4249654;27;20051;-80
2023/08/20 06:59:18;;;;;;;12.13;2.80;;;19.10;99.90;;;;;;4231515;28;20052;-80
2023/08/20 07:01:20;;;;;;;10.85;3.40;;;19.20;99.90;;;;;;4249640;27;20118;-80
2023/08/20 07:03:21;;;;;;;8.20;2.00;;;19.20;99.90;;;;;;4249984;27;20047;-80
2023/08/20 07:05:22;;;;;;;10.02;3.05;;;19.30;99.90;;;;;;4249944;27;20395;-80
2023/08/20 07:07:22;;;;;;;9.50;2.45;;;19.30;99.90;;;;;;4244298;27;20055;-81
2023/08/20 07:09:23;;;;;;;11.05;2.28;;;19.40;99.90;;;;;;4241345;27;20045;-80
2023/08/20 07:11:24;;;;;;;7.88;2.22;;;19.50;99.90;;;;;;4241306;27;20177;-80
2023/08/20 07:13:25;;;;;;;9.52;2.05;;;19.60;99.90;;;;;;4232572;27;20042;-81
2023/08/20 07:15:26;;;;;;;9.55;2.22;;;19.70;99.90;;;;;;4202546;28;20428;-82
2023/08/20 07:17:26;;;;;;;8.88;2.10;;;19.80;99.90;;;;;;4233167;28;20461;-83
2023/08/20 07:19:27;;;;;;;13.60;2.38;;;19.90;99.90;;;;;;4214529;28;20059;-80
2023/08/20 07:21:28;;;;;;;8.85;2.72;;;20.00;99.90;;;;;;4232607;28;20364;-82
2023/08/20 07:23:28;;;;;;;9.00;2.22;;;20.10;99.90;;;;;;4231988;28;20113;-82
2023/08/20 07:25:29;;;;;;;10.20;2.05;;;20.30;99.90;;;;;;4232239;28;20399;-82
2023/08/20 07:27:30;;;;;;;8.88;2.10;;;20.30;99.90;;;;;;4232577;28;20042;-81
2023/08/20 07:29:31;;;;;;;9.38;2.00;;;20.30;99.90;;;;;;4213871;28;20155;-81
2023/08/20 07:31:33;;;;;;;13.13;2.20;;;20.30;99.90;;;;;;4232121;28;20480;-81
2023/08/20 07:33:33;;;;;;;11.45;2.28;;;20.40;99.90;;;;;;4214364;28;20039;-82
2023/08/20 07:35:35;;;;;;;16.05;2.70;;;20.40;99.90;;;;;;4232095;28;20503;-82
2023/08/20 07:37:36;;;;;;;11.18;2.20;;;20.60;99.90;;;;;;4214180;28;20040;-81
2023/08/20 07:39:37;;;;;;;8.73;2.00;;;20.70;99.90;;;;;;4215105;28;20031;-81
2023/08/20 07:41:38;;;;;;;7.47;2.00;;;20.80;99.90;;;;;;4245297;27;20380;-81
2023/08/20 07:43:39;;;;;;;11.95;1.90;;;20.90;99.90;;;;;;4230851;28;20100;-81
2023/08/20 07:45:40;;;;;;;13.65;2.38;;;20.90;99.90;;;;;;4248940;27;20407;-81
2023/08/20 07:47:41;;;;;;;14.90;1.92;;;21.00;99.90;;;;;;4249728;27;20043;-82
2023/08/20 07:49:42;;;;;;;8.55;1.75;;;21.00;99.90;;;;;;4248151;27;20043;-81
2023/08/20 07:51:42;;;;;;;14.13;2.85;;;21.10;99.90;;;;;;4230426;28;20044;-81
2023/08/20 07:53:43;;;;;;;6.82;1.70;;;21.10;99.90;;;;;;4248643;27;20054;-82
2023/08/20 07:55:44;;;;;;;11.80;1.95;;;21.20;99.90;;;;;;4237092;27;20472;-82
2023/08/20 07:57:45;;;;;;;13.40;2.30;;;21.30;99.90;;;;;;4250816;27;20083;-82
2023/08/20 07:59:45;;;;;;;10.40;2.15;;;21.30;99.90;;;;;;4248784;27;20398;-82
2023/08/20 08:01:46;;;;;;;8.73;2.53;;;21.50;99.90;;;;;;4246307;27;20055;-81
2023/08/20 08:03:47;;;;;;;9.63;2.03;;;21.70;99.90;;;;;;4234863;27;20395;-82
2023/08/20 08:05:49;;;;;;;9.23;2.28;;;21.70;99.90;;;;;;4231444;28;20062;-82
2023/08/20 08:07:50;;;;;;;8.80;2.45;;;21.80;99.90;;;;;;4215899;28;20083;-82
2023/08/20 08:09:50;;;;;;;7.55;1.60;;;21.90;99.90;;;;;;4236601;27;20039;-81
2023/08/20 08:11:51;;;;;;;10.88;2.95;;;22.70;99.90;;;;;;4236414;27;20043;-82
2023/08/20 08:13:52;;;;;;;11.80;1.80;;;22.20;99.90;;;;;;4196525;28;20048;-82
2023/08/20 08:15:53;;;;;;;7.32;1.30;;;22.30;99.90;;;;;;4213508;28;20175;-82
2023/08/20 08:17:53;;;;;;;7.05;1.52;;;22.50;99.90;;;;;;4243606;27;20043;-82
2023/08/20 08:19:55;;;;;;;18.45;2.45;;;22.50;99.90;;;;;;4248473;27;20403;-83
2023/08/20 08:21:56;;;;;;;16.55;2.67;;;22.50;99.90;;;;;;4248853;27;20067;-83
2023/08/20 08:23:57;;;;;;;8.07;1.92;;;22.70;99.90;;;;;;4248753;27;20479;-83
2023/08/20 08:25:58;;;;;;;13.55;2.63;;;22.80;99.90;;;;;;4227685;28;20042;-82
2023/08/20 08:27:58;;;;;;;14.00;2.47;;;23.00;99.90;;;;;;4239237;27;20096;-81
2023/08/20 08:29:59;;;;;;;9.90;1.50;;;23.20;99.90;;;;;;4245673;27;20099;-82
2023/08/20 08:32:00;;;;;;;5.85;1.48;;;23.40;99.90;;;;;;4224412;28;20044;-81
2023/08/20 08:34:03;;;;;;;5.10;1.30;;;23.60;99.90;;;;;;4231280;28;20031;-81
2023/08/20 08:36:04;;;;;;;7.57;1.95;;;23.30;99.90;;;;;;4230892;28;20054;-81
2023/08/20 08:38:04;;;;;;;9.18;1.35;;;23.70;99.90;;;;;;4231512;28;20550;-81
2023/08/20 08:40:09;;;;;;;10.13;1.48;;;23.60;99.90;;;;;;4231466;28;20126;-86
2023/08/20 08:42:11;;;;;;;10.50;2.25;;;23.50;99.90;;;;;;4218368;28;20048;-82
2023/08/20 08:44:12;;;;;;;7.90;1.90;;;23.50;99.90;;;;;;4240502;27;20036;-82
2023/08/20 08:46:14;;;;;;;10.13;1.67;;;23.50;99.90;;;;;;4230966;28;20050;-83
2023/08/20 08:48:15;;;;;;;4.78;1.35;;;23.70;99.90;;;;;;4245438;27;20035;-83
2023/08/20 08:50:16;;;;;;;8.27;2.15;;;23.70;99.90;;;;;;4230164;28;20047;-82
2023/08/20 08:52:25;;;;;;;4.90;1.30;;;23.70;99.90;;;;;;4236501;28;20480;-82
2023/08/20 08:54:28;;;;;;;7.57;1.20;;;23.90;99.90;;;;;;4259198;27;20047;-82
2023/08/20 08:56:29;;;;;;;11.40;2.38;;;24.10;99.90;;;;;;4258579;27;20062;-82
2023/08/20 08:58:30;;;;;;;7.07;1.55;;;24.30;99.90;;;;;;4258868;27;20051;-82
2023/08/20 09:00:32;;;;;;;7.85;1.45;;;24.50;99.90;;;;;;4255877;27;20074;-82
2023/08/20 09:02:34;;;;;;;6.47;1.40;;;24.80;99.90;;;;;;4258341;27;20070;-81
2023/08/20 09:04:38;;;;;;;9.02;1.58;;;24.90;99.90;;;;;;4236441;28;20064;-83
2023/08/20 09:06:47;;;;;;;9.35;1.38;;;25.00;99.90;;;;;;4252167;27;20039;-79
2023/08/20 09:08:47;;;;;;;4.05;1.13;;;25.30;99.90;;;;;;4252348;27;20091;-79
2023/08/20 09:10:52;;;;;;;5.20;1.00;;;25.30;99.90;;;;;;4244651;27;20031;-79
2023/08/20 09:12:56;;;;;;;5.03;0.90;;;25.30;99.90;;;;;;4247917;28;20039;-79
2023/08/20 09:15:00;;;;;;;4.03;0.70;;;25.30;99.90;;;;;;4248407;28;20123;-79
2023/08/20 09:17:02;;;;;;;6.78;1.35;;;25.30;99.90;;;;;;4237646;28;20426;-78
2023/08/20 09:19:03;;;;;;;5.30;0.80;;;25.60;99.90;;;;;;4231035;28;20395;-78
2023/08/20 09:21:07;;;;;;;6.80;0.98;;;25.70;99.90;;;;;;4212557;28;20056;-78
2023/08/20 09:23:13;;;;;;;4.45;1.25;;;25.70;99.90;;;;;;4231229;28;20119;-79
2023/08/20 09:25:16;;;;;;;11.07;1.75;;;25.50;99.90;;;;;;4212806;28;20044;-78
2023/08/20 09:27:17;;;;;;;5.97;0.90;;;25.30;99.90;;;;;;4230841;28;20442;-78
2023/08/20 09:29:18;;;;;;;4.65;0.95;;;25.20;99.90;;;;;;4230461;28;20100;-78
2023/08/20 09:31:19;;;;;;;5.35;0.95;;;25.30;99.90;;;;;;4230613;28;20036;-79
2023/08/20 09:33:20;;;;;;;3.72;0.60;;;25.40;99.90;;;;;;4238597;28;20039;-79
2023/08/20 09:35:20;;;;;;;4.93;0.77;;;25.50;99.90;;;;;;4247564;28;20070;-79
2023/08/20 09:37:23;;;;;;;5.15;0.93;;;25.60;99.90;;;;;;4226505;28;20055;-79
2023/08/20 09:39:24;;;;;;;8.65;1.90;;;25.60;99.90;;;;;;4247370;28;20146;-79
2023/08/20 09:41:26;;;;;;;6.72;1.08;;;25.80;99.90;;;;;;4246208;28;20437;-78
2023/08/20 09:43:30;;;;;;;5.88;1.75;;;25.80;99.90;;;;;;4247718;28;20479;-79
2023/08/20 09:45:32;;;;;;;4.45;1.20;;;25.90;99.90;;;;;;4228860;28;20097;-79
2023/08/20 09:47:36;;;;;;;6.97;0.88;;;26.00;99.90;;;;;;4250752;27;20047;-79
2023/08/20 09:49:38;;;;;;;6.70;0.88;;;26.30;99.90;;;;;;4250996;27;20043;-79
2023/08/20 09:51:39;;;;;;;5.75;1.15;;;;;;;;;;4249858;27;20482;-79
2023/08/20 09:53:49;;;;;;;8.45;1.27;;;;;;;;;;4237424;27;20488;-79
2023/08/20 09:55:50;;;;;;;;;;;;;;;;;;4233555;28;20044;-79
2023/08/20 09:57:51;;;;;;;5.53;1.02;;;;;;;;;;4234161;28;20364;-79
2023/08/20 09:59:53;;;;;;;7.00;1.88;;;;;;;;;;4233900;28;20050;-78
2023/08/20 10:01:54;;;;;;;6.57;0.98;;;;;;;;;;4233329;28;20082;-79
2023/08/20 10:03:56;;;;;;;4.88;1.00;;;;;;;;;;4233679;28;20052;-78
2023/08/20 10:05:58;;;;;;;5.25;1.35;;;;;;;;;;4233802;28;20463;-78
2023/08/20 10:08:01;;;;;;;6.10;1.60;;;;;;;;;;4233701;28;20039;-78
2023/08/20 10:10:04;;;;;;;10.60;2.95;;;;;;;;;;4236901;27;20054;-78
2023/08/20 10:12:05;;;;;;;6.75;1.70;;;;;;;;;;4233815;28;20040;-78
2023/08/20 10:14:06;;;;;;;5.40;1.55;;;26.60;99.90;;;;;;4215763;28;20420;-78
2023/08/20 10:16:08;;;;;;;5.07;1.13;;;;;;;;;;4233522;28;20096;-78
2023/08/20 10:18:09;;;;;;;5.53;1.17;;;;;;;;;;4232879;28;20542;-79
2023/08/20 10:20:10;;;;;;;5.97;1.30;;;;;;;;;;4215389;28;20055;-78
2023/08/20 10:22:11;;;;;;;7.05;1.30;;;27.30;99.90;;;;;;4233689;28;20054;-78
2023/08/20 10:24:23;;;;;;;6.53;1.35;;;27.20;99.90;;;;;;4233417;28;20114;-79
2023/08/20 10:26:24;;;;;;;6.38;1.27;;;27.30;99.90;;;;;;4233284;28;20427;-79
2023/08/20 10:28:30;;;;;;;6.03;1.42;;;;;;;;;;4236807;27;20043;-78
2023/08/20 10:30:31;;;;;;;9.95;1.65;;;;;;;;;;4244124;27;20403;-79
2023/08/20 10:32:46;;;;;;;5.35;1.33;;;;;;;;;;4250364;27;20046;-78
2023/08/20 10:34:54;;;;;;;5.72;1.05;;;27.00;99.90;;;;;;4248755;27;20059;-78
2023/08/20 10:36:54;;;;;;;4.95;0.88;;;28.20;99.90;;;;;;4250263;27;20047;-79